createdAt,value
2019-06-20T00:00:10.571Z,47.93
2019-06-20T00:01:14.734Z,48.06
2019-06-20T00:02:18.348Z,48.05
2019-06-20T00:03:22.468Z,48.14
2019-06-20T00:04:26.064Z,47.92
2019-06-20T00:05:30.238Z,47.99
2019-06-20T00:06:33.757Z,48.02
2019-06-20T00:07:37.925Z,48.13
2019-06-20T00:08:41.457Z,48.09
2019-06-20T00:09:45.570Z,47.95
2019-06-20T00:10:49.454Z,48.18
2019-06-20T00:11:54.343Z,48.02
2019-06-20T00:13:00.811Z,47.79
2019-06-20T00:14:03.709Z,47.74
2019-06-20T00:15:07.396Z,47.83
2019-06-20T00:16:11.548Z,47.93
2019-06-20T00:17:15.142Z,47.80
2019-06-20T00:18:19.134Z,47.57
2019-06-20T00:19:22.665Z,47.34
2019-06-20T00:20:26.766Z,47.31
2019-06-20T00:21:30.296Z,47.45
2019-06-20T00:22:34.338Z,47.46
2019-06-20T00:23:37.862Z,47.20
2019-06-20T00:24:42.055Z,47.47
2019-06-20T00:25:45.630Z,47.44
2019-06-20T00:26:49.813Z,47.33
2019-06-20T00:27:53.229Z,47.23
2019-06-20T00:28:57.404Z,47.33
2019-06-20T00:30:01.003Z,47.42
2019-06-20T00:31:05.182Z,47.31
2019-06-20T00:32:08.710Z,47.46
2019-06-20T00:33:12.749Z,47.34
2019-06-20T00:34:16.310Z,46.99
2019-06-20T00:35:20.438Z,46.99
2019-06-20T00:36:23.892Z,46.69
2019-06-20T00:37:28.076Z,46.71
2019-06-20T00:38:31.606Z,46.84
2019-06-20T00:39:35.670Z,47.00
2019-06-20T00:40:39.305Z,47.17
2019-06-20T00:41:43.368Z,47.18
2019-06-20T00:42:46.876Z,46.90
2019-06-20T00:43:50.980Z,46.92
2019-06-20T00:44:54.584Z,46.95
2019-06-20T00:45:58.754Z,47.37
2019-06-20T00:47:02.164Z,47.57
2019-06-20T00:48:06.423Z,47.33
2019-06-20T00:49:10.983Z,47.27
2019-06-20T00:50:15.167Z,46.92
2019-06-20T00:51:18.659Z,46.88
2019-06-20T00:52:22.755Z,46.56
2019-06-20T00:53:26.223Z,46.57
2019-06-20T00:54:30.403Z,46.54
2019-06-20T00:55:33.956Z,45.74
2019-06-20T00:56:38.051Z,46.07
2019-06-20T00:57:41.564Z,46.14
2019-06-20T00:58:45.753Z,45.88
2019-06-20T00:59:49.356Z,45.88
2019-06-20T01:00:53.527Z,45.99
2019-06-20T01:01:57.135Z,45.80
2019-06-20T01:03:01.243Z,45.74
2019-06-20T01:04:04.825Z,45.63
2019-06-20T01:05:09.263Z,45.69
2019-06-20T01:06:12.749Z,45.56
2019-06-20T01:07:16.806Z,45.62
2019-06-20T01:08:20.226Z,45.69
2019-06-20T01:09:24.328Z,46.06
2019-06-20T01:10:27.878Z,46.22
2019-06-20T01:11:32.101Z,46.33
2019-06-20T01:12:35.704Z,46.55
2019-06-20T01:13:39.818Z,46.53
2019-06-20T01:14:43.274Z,46.50
2019-06-20T01:15:49.323Z,46.62
2019-06-20T01:16:52.966Z,46.94
2019-06-20T01:17:57.088Z,46.68
2019-06-20T01:19:00.728Z,46.48
2019-06-20T01:20:06.845Z,46.26
2019-06-20T01:21:10.467Z,46.43
2019-06-20T01:22:14.502Z,46.24
2019-06-20T01:23:18.018Z,46.02
2019-06-20T01:24:22.150Z,46.05
2019-06-20T01:25:39.633Z,45.96
2019-06-20T01:26:43.733Z,45.95
2019-06-20T01:27:47.267Z,46.09
2019-06-20T01:28:51.311Z,46.14
2019-06-20T01:29:54.814Z,45.92
2019-06-20T01:30:59.064Z,45.79
2019-06-20T01:32:02.663Z,45.43
2019-06-20T01:33:07.260Z,45.48
2019-06-20T01:34:10.760Z,45.50
2019-06-20T01:35:15.131Z,45.60
2019-06-20T01:36:18.664Z,45.50
2019-06-20T01:37:22.696Z,45.42
2019-06-20T01:38:26.224Z,45.57
2019-06-20T01:39:30.271Z,45.56
2019-06-20T01:40:33.816Z,45.79
2019-06-20T01:41:37.949Z,45.95
2019-06-20T01:42:41.459Z,45.95
2019-06-20T01:43:50.705Z,45.90
2019-06-20T01:44:50.653Z,45.93
2019-06-20T01:45:54.852Z,46.06
2019-06-20T01:46:58.390Z,46.12
2019-06-20T01:48:02.518Z,46.01
2019-06-20T01:49:06.297Z,45.93
2019-06-20T01:50:10.509Z,46.01
2019-06-20T01:51:14.089Z,46.14
2019-06-20T01:52:18.163Z,46.75
2019-06-20T01:53:21.612Z,46.96
2019-06-20T01:54:25.709Z,47.18
2019-06-20T01:55:29.162Z,47.07
2019-06-20T01:56:33.272Z,46.98
2019-06-20T01:57:36.762Z,46.79
2019-06-20T01:58:40.862Z,46.74
2019-06-20T01:59:44.405Z,46.61
2019-06-20T02:00:51.145Z,46.41
2019-06-20T02:01:54.696Z,46.27
2019-06-20T02:02:58.910Z,46.06
2019-06-20T02:04:02.502Z,46.09
2019-06-20T02:05:08.273Z,46.09
2019-06-20T02:06:11.846Z,45.94
2019-06-20T02:07:16.025Z,45.83
2019-06-20T02:08:19.644Z,45.83
2019-06-20T02:09:23.812Z,45.97
2019-06-20T02:10:27.400Z,46.00
2019-06-20T02:11:31.443Z,46.58
2019-06-20T02:12:34.977Z,47.57
2019-06-20T02:13:39.099Z,47.91
2019-06-20T02:14:42.618Z,48.44
2019-06-20T02:15:48.299Z,48.62
2019-06-20T02:16:52.367Z,49.61
2019-06-20T02:17:56.492Z,49.65
2019-06-20T02:19:01.324Z,49.76
2019-06-20T02:20:07.291Z,49.89
2019-06-20T02:21:10.855Z,50.23
2019-06-20T02:22:14.867Z,51.29
2019-06-20T02:23:18.624Z,52.05
2019-06-20T02:24:22.657Z,52.24
2019-06-20T02:25:26.178Z,52.42
2019-06-20T02:26:30.352Z,52.41
2019-06-20T02:27:33.812Z,53.11
2019-06-20T02:28:38.026Z,53.03
2019-06-20T02:29:41.465Z,53.28
2019-06-20T02:30:45.698Z,52.68
2019-06-20T02:31:49.151Z,52.53
2019-06-20T02:32:53.367Z,52.32
2019-06-20T02:33:56.873Z,52.43
2019-06-20T02:35:01.035Z,52.38
2019-06-20T02:36:04.574Z,52.43
2019-06-20T02:37:08.728Z,52.33
2019-06-20T02:38:12.197Z,52.50
2019-06-20T02:39:16.359Z,52.30
2019-06-20T02:40:19.929Z,52.48
2019-06-20T02:41:24.136Z,52.51
2019-06-20T02:42:27.695Z,52.57
2019-06-20T02:43:31.837Z,52.81
2019-06-20T02:44:35.380Z,52.68
2019-06-20T02:45:39.581Z,52.40
2019-06-20T02:46:43.145Z,52.57
2019-06-20T02:47:47.326Z,52.29
2019-06-20T02:48:50.842Z,52.49
2019-06-20T02:49:55.990Z,52.94
2019-06-20T02:50:59.705Z,52.74
2019-06-20T02:52:04.381Z,52.56
2019-06-20T02:53:07.987Z,52.00
2019-06-20T02:54:12.081Z,51.87
2019-06-20T02:55:15.706Z,51.71
2019-06-20T02:56:19.936Z,51.79
2019-06-20T02:57:23.393Z,52.38
2019-06-20T02:58:27.417Z,52.85
2019-06-20T02:59:30.943Z,52.68
2019-06-20T03:00:53.121Z,51.84
2019-06-20T03:01:56.586Z,52.10
2019-06-20T03:03:00.692Z,52.01
2019-06-20T03:04:04.203Z,52.18
2019-06-20T03:05:09.840Z,52.07
2019-06-20T03:06:13.309Z,52.45
2019-06-20T03:07:17.412Z,52.30
2019-06-20T03:08:21.000Z,52.29
2019-06-20T03:09:25.021Z,52.10
2019-06-20T03:10:28.531Z,52.19
2019-06-20T03:11:32.649Z,52.62
2019-06-20T03:12:36.208Z,52.31
2019-06-20T03:13:40.357Z,51.76
2019-06-20T03:14:45.674Z,51.87
2019-06-20T03:15:52.389Z,52.08
2019-06-20T03:16:56.337Z,52.51
2019-06-20T03:18:00.366Z,52.71
2019-06-20T03:19:04.253Z,52.82
2019-06-20T03:20:11.375Z,52.57
2019-06-20T03:21:14.818Z,52.50
2019-06-20T03:22:18.964Z,52.56
2019-06-20T03:23:22.585Z,52.28
2019-06-20T03:24:26.665Z,52.21
2019-06-20T03:25:30.294Z,52.36
2019-06-20T03:26:34.404Z,52.26
2019-06-20T03:27:37.925Z,52.15
2019-06-20T03:28:42.048Z,52.21
2019-06-20T03:29:45.495Z,52.35
2019-06-20T03:30:49.686Z,52.19
2019-06-20T03:31:53.222Z,52.19
2019-06-20T03:32:57.272Z,52.25
2019-06-20T03:34:00.888Z,52.53
2019-06-20T03:35:06.084Z,52.76
2019-06-20T03:36:09.676Z,52.66
2019-06-20T03:37:13.757Z,52.94
2019-06-20T03:38:17.273Z,53.17
2019-06-20T03:39:21.382Z,53.15
2019-06-20T03:40:24.903Z,53.36
2019-06-20T03:41:28.939Z,53.33
2019-06-20T03:42:32.417Z,53.81
2019-06-20T03:43:36.515Z,54.23
2019-06-20T03:44:40.045Z,54.57
2019-06-20T03:45:44.098Z,54.82
2019-06-20T03:46:47.544Z,54.99
2019-06-20T03:47:51.599Z,54.96
2019-06-20T03:48:55.049Z,55.10
2019-06-20T03:49:59.157Z,54.82
2019-06-20T03:51:02.751Z,54.98
2019-06-20T03:52:06.822Z,55.12
2019-06-20T03:53:10.405Z,55.33
2019-06-20T03:54:14.430Z,55.02
2019-06-20T03:55:18.024Z,55.37
2019-06-20T03:56:22.063Z,55.15
2019-06-20T03:57:25.786Z,55.12
2019-06-20T03:58:30.038Z,55.22
2019-06-20T03:59:33.576Z,55.77
2019-06-20T04:00:37.776Z,55.67
2019-06-20T04:01:41.370Z,55.31
2019-06-20T04:02:45.437Z,55.34
2019-06-20T04:03:49.016Z,54.93
2019-06-20T04:04:53.080Z,54.71
2019-06-20T04:05:56.531Z,54.88
2019-06-20T04:07:00.707Z,54.58
2019-06-20T04:08:04.527Z,54.59
2019-06-20T04:09:08.570Z,54.71
2019-06-20T04:10:12.169Z,54.72
2019-06-20T04:11:16.346Z,55.60
2019-06-20T04:12:19.870Z,55.32
2019-06-20T04:13:23.934Z,54.40
2019-06-20T04:14:27.510Z,54.27
2019-06-20T04:15:31.626Z,54.24
2019-06-20T04:16:35.152Z,54.52
2019-06-20T04:17:40.151Z,54.78
2019-06-20T04:18:43.687Z,54.66
2019-06-20T04:19:47.724Z,54.82
2019-06-20T04:20:51.310Z,54.51
2019-06-20T04:21:55.486Z,54.23
2019-06-20T04:22:59.031Z,54.15
2019-06-20T04:24:03.151Z,54.03
2019-06-20T04:25:07.335Z,54.29
2019-06-20T04:26:11.515Z,54.29
2019-06-20T04:27:14.980Z,54.13
2019-06-20T04:28:19.283Z,54.08
2019-06-20T04:29:22.796Z,54.58
2019-06-20T04:30:26.821Z,54.69
2019-06-20T04:31:30.275Z,54.68
2019-06-20T04:32:34.340Z,54.68
2019-06-20T04:33:37.930Z,54.68
2019-06-20T04:34:42.052Z,54.77
2019-06-20T04:35:45.646Z,54.65
2019-06-20T04:36:49.732Z,55.04
2019-06-20T04:37:53.233Z,55.06
2019-06-20T04:38:57.316Z,55.10
2019-06-20T04:40:00.899Z,55.03
2019-06-20T04:41:05.165Z,54.86
2019-06-20T04:42:08.660Z,54.72
2019-06-20T04:43:12.754Z,54.55
2019-06-20T04:44:16.354Z,54.81
2019-06-20T04:45:34.194Z,54.69
2019-06-20T04:46:34.220Z,54.73
2019-06-20T04:47:38.332Z,54.88
2019-06-20T04:48:42.680Z,55.07
2019-06-20T04:49:46.712Z,55.33
2019-06-20T04:50:50.289Z,55.58
2019-06-20T04:51:54.328Z,55.51
2019-06-20T04:52:57.768Z,55.34
2019-06-20T04:54:01.842Z,55.64
2019-06-20T04:55:05.964Z,55.77
2019-06-20T04:56:10.002Z,55.94
2019-06-20T04:57:13.496Z,55.54
2019-06-20T04:58:17.587Z,55.12
2019-06-20T04:59:21.057Z,55.15
2019-06-20T05:00:25.438Z,55.15
2019-06-20T05:01:28.962Z,55.07
2019-06-20T05:02:35.665Z,55.28
2019-06-20T05:03:39.138Z,55.92
2019-06-20T05:04:43.240Z,55.93
2019-06-20T05:05:46.743Z,55.87
2019-06-20T05:06:53.828Z,56.08
2019-06-20T05:07:57.533Z,55.86
2019-06-20T05:09:01.589Z,55.91
2019-06-20T05:10:08.013Z,55.72
2019-06-20T05:11:12.127Z,55.76
2019-06-20T05:12:15.758Z,55.84
2019-06-20T05:13:19.788Z,56.32
2019-06-20T05:14:23.360Z,55.86
2019-06-20T05:15:27.553Z,55.65
2019-06-20T05:16:31.069Z,55.41
2019-06-20T05:17:35.166Z,55.07
2019-06-20T05:18:39.338Z,56.24
2019-06-20T05:19:43.371Z,56.96
2019-06-20T05:20:46.963Z,57.98
2019-06-20T05:21:50.996Z,58.35
2019-06-20T05:22:54.438Z,59.04
2019-06-20T05:23:58.556Z,59.04
2019-06-20T05:25:02.021Z,59.34
2019-06-20T05:26:06.115Z,59.38
2019-06-20T05:27:09.563Z,59.27
2019-06-20T05:28:13.676Z,59.51
2019-06-20T05:29:17.202Z,59.37
2019-06-20T05:30:22.744Z,59.34
2019-06-20T05:31:26.275Z,59.40
2019-06-20T05:32:30.394Z,59.37
2019-06-20T05:33:33.912Z,59.31
2019-06-20T05:34:38.049Z,59.21
2019-06-20T05:35:42.462Z,59.69
2019-06-20T05:36:46.514Z,59.48
2019-06-20T05:37:49.957Z,59.40
2019-06-20T05:38:54.011Z,59.56
2019-06-20T05:39:57.569Z,59.49
2019-06-20T05:41:01.655Z,59.19
2019-06-20T05:42:05.342Z,59.16
2019-06-20T05:43:09.450Z,59.47
2019-06-20T05:44:12.989Z,59.72
2019-06-20T05:45:17.370Z,59.92
2019-06-20T05:46:20.835Z,59.81
2019-06-20T05:47:24.905Z,59.64
2019-06-20T05:48:28.352Z,59.46
2019-06-20T05:49:33.816Z,59.36
2019-06-20T05:50:37.431Z,59.23
2019-06-20T05:51:41.770Z,59.03
2019-06-20T05:52:45.303Z,58.93
2019-06-20T05:53:49.348Z,58.70
2019-06-20T05:54:52.881Z,58.35
2019-06-20T05:55:56.938Z,58.42
2019-06-20T05:57:03.379Z,58.38
2019-06-20T05:58:06.581Z,58.13
2019-06-20T05:59:10.143Z,58.02
2019-06-20T06:00:14.816Z,58.08
2019-06-20T06:01:18.340Z,58.08
2019-06-20T06:02:22.381Z,59.19
2019-06-20T06:03:25.834Z,59.93
2019-06-20T06:04:30.042Z,59.55
2019-06-20T06:05:33.711Z,59.33
2019-06-20T06:06:37.970Z,59.61
2019-06-20T06:07:41.702Z,59.17
2019-06-20T06:08:46.095Z,58.63
2019-06-20T06:09:49.866Z,58.74
2019-06-20T06:10:54.039Z,59.15
2019-06-20T06:11:57.579Z,58.88
2019-06-20T06:13:01.736Z,58.26
2019-06-20T06:14:05.514Z,57.92
2019-06-20T06:15:10.356Z,58.23
2019-06-20T06:16:25.588Z,57.29
2019-06-20T06:17:19.890Z,57.06
2019-06-20T06:18:23.545Z,57.22
2019-06-20T06:19:27.929Z,57.25
2019-06-20T06:20:31.590Z,57.34
2019-06-20T06:21:35.817Z,57.50
2019-06-20T06:22:39.593Z,57.66
2019-06-20T06:23:43.930Z,57.30
2019-06-20T06:24:47.353Z,57.29
2019-06-20T06:25:51.528Z,57.37
2019-06-20T06:26:59.597Z,57.47
2019-06-20T06:28:01.050Z,57.29
2019-06-20T06:29:04.802Z,57.30
2019-06-20T06:30:10.109Z,57.54
2019-06-20T06:31:13.647Z,57.52
2019-06-20T06:32:20.102Z,57.76
2019-06-20T06:33:22.896Z,57.33
2019-06-20T06:34:26.991Z,56.86
2019-06-20T06:35:30.633Z,56.68
2019-06-20T06:36:34.808Z,56.47
2019-06-20T06:37:38.347Z,56.51
2019-06-20T06:38:42.737Z,56.26
2019-06-20T06:39:46.376Z,55.48
2019-06-20T06:40:50.624Z,54.92
2019-06-20T06:41:54.264Z,54.71
2019-06-20T06:42:58.482Z,54.57
2019-06-20T06:44:02.155Z,54.73
2019-06-20T06:45:10.475Z,54.75
2019-06-20T06:46:15.572Z,54.59
2019-06-20T06:47:19.722Z,54.59
2019-06-20T06:48:23.310Z,54.47
2019-06-20T06:49:27.660Z,53.69
2019-06-20T06:50:31.287Z,53.93
2019-06-20T06:51:38.184Z,53.78
2019-06-20T06:52:41.072Z,53.72
2019-06-20T06:53:45.227Z,53.58
2019-06-20T06:54:49.017Z,53.19
2019-06-20T06:55:53.208Z,52.72
2019-06-20T06:56:56.773Z,52.86
2019-06-20T06:58:01.377Z,52.26
2019-06-20T06:59:04.962Z,52.45
2019-06-20T07:00:12.270Z,51.75
2019-06-20T07:01:16.101Z,51.95
2019-06-20T07:02:20.360Z,52.09
2019-06-20T07:03:23.935Z,51.92
2019-06-20T07:04:28.040Z,51.68
2019-06-20T07:05:31.647Z,51.58
2019-06-20T07:06:35.776Z,51.44
2019-06-20T07:07:39.364Z,51.67
2019-06-20T07:08:43.450Z,51.23
2019-06-20T07:09:47.042Z,51.31
2019-06-20T07:10:51.430Z,51.16
2019-06-20T07:11:55.056Z,51.26
2019-06-20T07:12:59.325Z,51.56
2019-06-20T07:14:02.830Z,52.15
2019-06-20T07:15:11.935Z,52.59
2019-06-20T07:16:15.450Z,52.18
2019-06-20T07:17:19.902Z,52.56
2019-06-20T07:18:23.602Z,52.51
2019-06-20T07:19:27.776Z,52.53
2019-06-20T07:20:31.414Z,52.56
2019-06-20T07:21:35.646Z,52.88
2019-06-20T07:22:39.156Z,53.03
2019-06-20T07:23:43.241Z,53.15
2019-06-20T07:24:46.855Z,53.02
2019-06-20T07:25:51.310Z,53.28
2019-06-20T07:26:54.856Z,53.87
2019-06-20T07:27:59.107Z,53.57
2019-06-20T07:29:03.116Z,52.94
2019-06-20T07:30:09.805Z,51.66
2019-06-20T07:31:13.345Z,50.54
2019-06-20T07:32:17.463Z,50.28
2019-06-20T07:33:21.057Z,49.95
2019-06-20T07:34:25.208Z,49.98
2019-06-20T07:35:28.892Z,50.19
2019-06-20T07:36:33.096Z,50.56
2019-06-20T07:37:36.601Z,50.28
2019-06-20T07:38:40.636Z,50.37
2019-06-20T07:39:44.176Z,50.01
2019-06-20T07:40:48.298Z,49.80
2019-06-20T07:41:51.861Z,50.16
2019-06-20T07:42:56.225Z,49.92
2019-06-20T07:43:59.762Z,49.46
2019-06-20T07:45:06.410Z,49.42
2019-06-20T07:46:10.796Z,49.46
2019-06-20T07:47:17.987Z,49.36
2019-06-20T07:48:20.093Z,49.58
2019-06-20T07:49:24.293Z,49.55
2019-06-20T07:50:27.831Z,49.23
2019-06-20T07:51:31.987Z,49.07
2019-06-20T07:52:35.548Z,49.29
2019-06-20T07:53:39.716Z,49.46
2019-06-20T07:54:43.302Z,49.17
2019-06-20T07:55:47.442Z,49.15
2019-06-20T07:56:53.707Z,49.05
2019-06-20T07:57:57.276Z,48.68
2019-06-20T07:59:00.789Z,48.70
2019-06-20T08:00:10.030Z,48.79
2019-06-20T08:01:13.645Z,48.70
2019-06-20T08:02:17.888Z,48.72
2019-06-20T08:03:21.526Z,48.67
2019-06-20T08:04:25.886Z,48.30
2019-06-20T08:05:29.458Z,48.21
2019-06-20T08:06:33.619Z,48.33
2019-06-20T08:07:37.279Z,48.56
2019-06-20T08:08:41.562Z,48.56
2019-06-20T08:09:45.628Z,48.34
2019-06-20T08:10:49.934Z,48.10
2019-06-20T08:11:53.502Z,48.11
2019-06-20T08:12:57.645Z,48.03
2019-06-20T08:14:01.111Z,48.14
2019-06-20T08:15:15.150Z,48.44
2019-06-20T08:16:12.725Z,48.46
2019-06-20T08:17:34.040Z,48.28
2019-06-20T08:18:22.154Z,47.82
2019-06-20T08:19:26.283Z,47.46
2019-06-20T08:20:30.353Z,47.62
2019-06-20T08:21:34.566Z,47.73
2019-06-20T08:22:38.072Z,47.85
2019-06-20T08:23:42.192Z,47.82
2019-06-20T08:24:46.129Z,48.32
2019-06-20T08:25:50.203Z,48.22
2019-06-20T08:26:53.740Z,47.93
2019-06-20T08:27:59.457Z,47.46
2019-06-20T08:29:16.128Z,48.26
2019-06-20T08:30:09.168Z,46.70
2019-06-20T08:31:12.684Z,47.20
2019-06-20T08:32:16.847Z,47.08
2019-06-20T08:33:20.601Z,47.24
2019-06-20T08:34:24.686Z,47.07
2019-06-20T08:35:30.536Z,46.87
2019-06-20T08:36:34.699Z,47.25
2019-06-20T08:37:38.202Z,47.18
2019-06-20T08:38:42.368Z,47.17
2019-06-20T08:39:45.863Z,47.12
2019-06-20T08:40:50.048Z,46.57
2019-06-20T08:41:53.581Z,46.46
2019-06-20T08:42:59.735Z,46.74
2019-06-20T08:44:03.942Z,46.19
2019-06-20T08:45:09.463Z,46.13
2019-06-20T08:46:14.940Z,46.12
2019-06-20T08:47:19.054Z,46.34
2019-06-20T08:48:22.666Z,46.55
2019-06-20T08:49:26.751Z,46.67
2019-06-20T08:50:30.379Z,46.83
2019-06-20T08:51:34.628Z,47.19
2019-06-20T08:52:38.168Z,47.51
2019-06-20T08:53:42.313Z,47.67
2019-06-20T08:54:45.904Z,47.96
2019-06-20T08:55:50.094Z,47.56
2019-06-20T08:56:55.607Z,47.52
2019-06-20T08:58:01.329Z,48.00
2019-06-20T08:59:04.987Z,48.72
2019-06-20T09:00:10.869Z,48.54
2019-06-20T09:01:14.395Z,48.67
2019-06-20T09:02:18.433Z,48.76
2019-06-20T09:03:22.018Z,48.60
2019-06-20T09:04:26.209Z,47.79
2019-06-20T09:05:30.894Z,47.23
2019-06-20T09:06:35.432Z,46.83
2019-06-20T09:07:41.730Z,47.25
2019-06-20T09:08:44.965Z,47.43
2019-06-20T09:09:48.636Z,47.24
2019-06-20T09:10:54.175Z,47.25
2019-06-20T09:11:58.578Z,47.07
2019-06-20T09:13:03.793Z,46.87
2019-06-20T09:14:07.593Z,47.23
2019-06-20T09:15:11.883Z,46.83
2019-06-20T09:16:24.440Z,46.83
2019-06-20T09:17:23.650Z,46.88
2019-06-20T09:18:27.217Z,47.03
2019-06-20T09:19:31.329Z,47.09
2019-06-20T09:20:35.051Z,47.42
2019-06-20T09:21:39.219Z,47.37
2019-06-20T09:22:42.929Z,47.44
2019-06-20T09:23:46.967Z,47.59
2019-06-20T09:24:52.035Z,48.24
2019-06-20T09:25:57.558Z,48.34
2019-06-20T09:27:04.323Z,47.58
2019-06-20T09:28:08.915Z,47.17
2019-06-20T09:29:12.610Z,46.94
2019-06-20T09:30:17.214Z,46.78
2019-06-20T09:31:20.715Z,46.66
2019-06-20T09:32:24.776Z,46.71
2019-06-20T09:33:28.388Z,46.29
2019-06-20T09:34:32.458Z,45.99
2019-06-20T09:35:36.211Z,45.47
2019-06-20T09:36:40.466Z,45.09
2019-06-20T09:37:44.096Z,45.22
2019-06-20T09:38:48.297Z,45.95
2019-06-20T09:39:54.818Z,46.93
2019-06-20T09:40:59.249Z,46.85
2019-06-20T09:42:03.445Z,46.69
2019-06-20T09:43:07.846Z,46.47
2019-06-20T09:44:11.369Z,45.76
2019-06-20T09:45:17.118Z,45.80
2019-06-20T09:46:22.088Z,45.64
2019-06-20T09:47:26.174Z,45.52
2019-06-20T09:48:29.687Z,45.45
2019-06-20T09:49:33.791Z,44.42
2019-06-20T09:50:37.421Z,44.94
2019-06-20T09:51:41.495Z,45.30
2019-06-20T09:52:44.973Z,45.69
2019-06-20T09:53:49.895Z,45.85
2019-06-20T09:54:53.924Z,45.62
2019-06-20T09:55:57.999Z,45.41
2019-06-20T09:57:01.559Z,45.38
2019-06-20T09:58:06.194Z,45.59
2019-06-20T09:59:26.656Z,45.86
2019-06-20T10:00:26.933Z,45.99
2019-06-20T10:01:30.434Z,46.41
2019-06-20T10:02:34.566Z,45.79
2019-06-20T10:03:38.239Z,45.90
2019-06-20T10:04:42.545Z,46.21
2019-06-20T10:05:47.666Z,45.77
2019-06-20T10:06:52.358Z,46.02
2019-06-20T10:07:56.872Z,46.33
2019-06-20T10:09:01.322Z,45.92
2019-06-20T10:10:10.111Z,45.70
2019-06-20T10:11:14.378Z,45.87
2019-06-20T10:12:18.681Z,45.54
2019-06-20T10:13:23.277Z,45.35
2019-06-20T10:14:27.412Z,46.11
2019-06-20T10:15:36.224Z,46.10
2019-06-20T10:16:45.665Z,46.11
2019-06-20T10:17:47.379Z,46.23
2019-06-20T10:18:52.136Z,45.60
2019-06-20T10:19:56.380Z,45.54
2019-06-20T10:21:00.312Z,45.61
2019-06-20T10:22:08.209Z,45.67
2019-06-20T10:23:11.939Z,45.65
2019-06-20T10:24:17.115Z,44.84
2019-06-20T10:25:21.032Z,45.53
2019-06-20T10:26:25.798Z,45.56
2019-06-20T10:27:29.488Z,45.75
2019-06-20T10:28:38.087Z,45.75
2019-06-20T10:29:44.424Z,45.73
2019-06-20T10:30:51.066Z,46.08
2019-06-20T10:31:55.347Z,46.08
2019-06-20T10:33:02.035Z,45.84
2019-06-20T10:34:07.793Z,46.12
2019-06-20T10:35:13.014Z,46.20
2019-06-20T10:36:18.632Z,46.67
2019-06-20T10:37:23.209Z,47.09
2019-06-20T10:38:27.328Z,47.65
2019-06-20T10:39:32.407Z,48.42
2019-06-20T10:40:36.168Z,49.04
2019-06-20T10:41:40.809Z,49.35
2019-06-20T10:42:46.199Z,49.24
2019-06-20T10:43:51.745Z,49.46
2019-06-20T10:44:56.258Z,50.53
2019-06-20T10:46:01.954Z,50.76
2019-06-20T10:47:06.007Z,50.66
2019-06-20T10:48:10.643Z,50.45
2019-06-20T10:49:14.336Z,50.74
2019-06-20T10:50:19.368Z,51.19
2019-06-20T10:51:33.407Z,51.38
2019-06-20T10:52:37.795Z,51.86
2019-06-20T10:53:44.009Z,52.74
2019-06-20T10:54:47.723Z,53.22
2019-06-20T10:55:51.337Z,53.46
2019-06-20T10:56:57.132Z,53.94
2019-06-20T10:58:04.966Z,53.26
2019-06-20T10:59:14.220Z,53.40
2019-06-20T11:00:30.219Z,53.00
2019-06-20T11:01:31.844Z,53.54
2019-06-20T11:02:36.277Z,53.35
2019-06-20T11:03:43.826Z,52.98
2019-06-20T11:04:51.537Z,53.10
2019-06-20T11:05:59.817Z,52.79
2019-06-20T11:07:04.156Z,52.77
2019-06-20T11:08:09.923Z,52.75
2019-06-20T11:09:13.833Z,52.70
2019-06-20T11:10:18.371Z,51.85
2019-06-20T11:11:25.912Z,51.68
2019-06-20T11:12:42.628Z,51.58
2019-06-20T11:13:39.529Z,50.97
2019-06-20T11:14:46.213Z,50.99
2019-06-20T11:15:53.858Z,50.19
2019-06-20T11:17:00.118Z,49.54
2019-06-20T11:18:08.790Z,49.24
2019-06-20T11:19:12.569Z,49.13
2019-06-20T11:20:16.937Z,50.09
2019-06-20T11:21:21.120Z,50.39
2019-06-20T11:22:24.736Z,50.24
2019-06-20T11:23:29.525Z,50.78
2019-06-20T11:24:33.318Z,50.82
2019-06-20T11:25:41.997Z,51.11
2019-06-20T11:26:46.028Z,50.00
2019-06-20T11:27:50.274Z,50.34
2019-06-20T11:28:53.889Z,50.05
2019-06-20T11:29:58.495Z,50.61
2019-06-20T11:31:02.057Z,49.24
2019-06-20T11:32:06.683Z,49.39
2019-06-20T11:33:10.338Z,48.84
2019-06-20T11:34:14.468Z,48.47
2019-06-20T11:35:18.012Z,48.91
2019-06-20T11:36:22.171Z,48.29
2019-06-20T11:37:25.642Z,48.09
2019-06-20T11:38:29.734Z,47.16
2019-06-20T11:39:34.699Z,45.72
2019-06-20T11:40:39.681Z,44.77
2019-06-20T11:41:43.689Z,44.82
2019-06-20T11:42:47.885Z,44.04
2019-06-20T11:43:51.332Z,44.23
2019-06-20T11:44:55.125Z,43.98
2019-06-20T11:45:58.547Z,44.81
2019-06-20T11:47:02.656Z,43.81
2019-06-20T11:48:06.281Z,43.03
2019-06-20T11:49:10.375Z,42.62
2019-06-20T11:50:14.277Z,43.35
2019-06-20T11:51:18.285Z,41.60
2019-06-20T11:52:21.818Z,41.17
2019-06-20T11:53:25.861Z,41.44
2019-06-20T11:54:29.439Z,40.66
2019-06-20T11:55:33.534Z,40.28
2019-06-20T11:56:37.077Z,40.01
2019-06-20T11:57:41.127Z,39.75
2019-06-20T11:58:44.632Z,38.90
2019-06-20T11:59:48.737Z,38.91
2019-06-20T12:01:03.160Z,39.58
2019-06-20T12:01:57.991Z,39.08
2019-06-20T12:03:01.516Z,38.05
2019-06-20T12:04:05.668Z,38.05
2019-06-20T12:05:11.009Z,39.30
2019-06-20T12:06:15.175Z,39.84
2019-06-20T12:07:18.760Z,39.78
2019-06-20T12:08:22.934Z,40.17
2019-06-20T12:09:26.466Z,39.46
2019-06-20T12:10:30.554Z,37.63
2019-06-20T12:11:34.062Z,37.63
2019-06-20T12:12:39.667Z,36.07
2019-06-20T12:13:44.490Z,35.27
2019-06-20T12:14:48.743Z,35.27
2019-06-20T12:15:52.338Z,34.83
2019-06-20T12:16:56.574Z,35.51
2019-06-20T12:18:00.090Z,35.44
2019-06-20T12:19:04.153Z,36.06
2019-06-20T12:20:08.340Z,35.63
2019-06-20T12:21:12.463Z,35.37
2019-06-20T12:22:15.887Z,34.08
2019-06-20T12:23:20.079Z,33.46
2019-06-20T12:24:23.550Z,33.46
2019-06-20T12:25:27.924Z,34.65
2019-06-20T12:26:31.375Z,34.65
2019-06-20T12:27:35.462Z,34.95
2019-06-20T12:28:39.635Z,34.95
2019-06-20T12:29:44.863Z,34.50
2019-06-20T12:30:48.748Z,34.50
2019-06-20T12:31:52.906Z,35.73
2019-06-20T12:32:56.935Z,35.73
2019-06-20T12:34:00.943Z,36.12
2019-06-20T12:35:05.768Z,36.63
2019-06-20T12:36:10.163Z,37.71
2019-06-20T12:37:13.760Z,37.71
2019-06-20T12:38:17.790Z,37.39
2019-06-20T12:39:21.298Z,37.78
2019-06-20T12:40:26.587Z,38.16
2019-06-20T12:41:30.052Z,38.16
2019-06-20T12:42:34.068Z,38.44
2019-06-20T12:43:39.060Z,38.44
2019-06-20T12:44:44.164Z,38.52
2019-06-20T12:45:47.885Z,38.58
2019-06-20T12:46:52.049Z,38.45
2019-06-20T12:47:55.606Z,38.77
2019-06-20T12:48:59.632Z,38.77
2019-06-20T12:50:04.069Z,38.75
2019-06-20T12:51:08.156Z,39.16
2019-06-20T12:52:11.617Z,39.78
2019-06-20T12:53:15.728Z,39.99
2019-06-20T12:54:19.195Z,40.29
2019-06-20T12:55:23.316Z,40.09
2019-06-20T12:56:26.761Z,39.96
2019-06-20T12:57:30.955Z,40.51
2019-06-20T12:58:34.461Z,40.51
2019-06-20T12:59:39.461Z,41.10
2019-06-20T13:00:45.344Z,41.20
2019-06-20T13:01:51.058Z,41.45
2019-06-20T13:02:54.639Z,41.84
2019-06-20T13:03:58.683Z,41.84
2019-06-20T13:05:02.197Z,41.88
2019-06-20T13:06:06.497Z,42.04
2019-06-20T13:07:10.057Z,42.16
2019-06-20T13:08:14.217Z,42.42
2019-06-20T13:09:17.684Z,42.54
2019-06-20T13:10:22.011Z,42.86
2019-06-20T13:11:25.514Z,42.88
2019-06-20T13:12:29.585Z,43.20
2019-06-20T13:13:33.044Z,43.66
2019-06-20T13:14:39.203Z,43.82
2019-06-20T13:15:42.525Z,44.16
2019-06-20T13:16:48.197Z,44.23
2019-06-20T13:17:51.866Z,44.54
2019-06-20T13:18:55.948Z,44.39
2019-06-20T13:19:59.487Z,44.67
2019-06-20T13:21:03.636Z,44.55
2019-06-20T13:22:07.161Z,44.77
2019-06-20T13:23:11.194Z,44.54
2019-06-20T13:24:14.774Z,44.35
2019-06-20T13:25:18.981Z,44.50
2019-06-20T13:26:22.517Z,44.29
2019-06-20T13:27:26.644Z,44.03
2019-06-20T13:28:30.094Z,43.77
2019-06-20T13:29:34.111Z,43.84
2019-06-20T13:30:38.525Z,43.78
2019-06-20T13:32:00.559Z,44.02
2019-06-20T13:32:49.009Z,44.21
2019-06-20T13:33:53.028Z,44.35
2019-06-20T13:34:56.665Z,44.31
2019-06-20T13:36:00.633Z,44.26
2019-06-20T13:37:04.151Z,44.32
2019-06-20T13:38:08.371Z,44.44
2019-06-20T13:39:11.885Z,44.71
2019-06-20T13:40:16.244Z,44.96
2019-06-20T13:41:19.959Z,45.80
2019-06-20T13:42:24.052Z,46.20
2019-06-20T13:43:27.499Z,46.51
2019-06-20T13:44:31.590Z,46.72
2019-06-20T13:45:35.056Z,46.56
2019-06-20T13:46:39.996Z,46.58
2019-06-20T13:47:45.752Z,46.75